Time;durP1;ratioP1;P1;durP2;ratioP2;P2;SDS_P1;SDS_P2;PMS_P1;PMS_P2;Temp;Humidity;BMP_temperature;BMP_pressure;BME280_temperature;BME280_humidity;BME280_pressure;Samples;Min_cycle;Max_cycle;Signal;HPM_P1;HPM_P2
2023/11/27 00:02:19;;;;;;;13.98;5.57;;;;;;;3.78;100.00;100756.28;5057958;28;20032;-72
2023/11/27 00:04:45;;;;;;;15.90;4.90;;;;;;;3.78;100.00;100751.97;5044343;28;20028;-72
2023/11/27 00:07:10;;;;;;;13.05;5.82;;;;;;;3.79;100.00;100750.22;5063989;28;20079;-72
2023/11/27 00:09:36;;;;;;;16.05;5.10;;;;;;;3.82;100.00;100740.53;5046978;28;20032;-73
2023/11/27 00:12:02;;;;;;;15.00;5.97;;;;;;;3.67;100.00;100739.09;5066081;28;20043;-72
2023/11/27 00:14:28;;;;;;;16.35;5.32;;;;;;;3.82;100.00;100740.53;5068329;28;20036;-72
2023/11/27 00:16:54;;;;;;;11.32;4.63;;;;;;;3.78;100.00;100739.13;5045945;28;20036;-72
2023/11/27 00:19:19;;;;;;;13.50;5.28;;;;;;;3.81;100.00;100732.97;5050421;28;20041;-71
2023/11/27 00:21:45;;;;;;;14.55;5.88;;;;;;;3.86;100.00;100730.88;5062331;28;20403;-71
2023/11/27 00:24:11;;;;;;;16.48;5.82;;;;;;;3.73;100.00;100722.44;5065706;28;20048;-72
2023/11/27 00:26:36;;;;;;;18.08;6.20;;;;;;;3.72;100.00;100724.19;5064540;28;20071;-72
2023/11/27 00:29:02;;;;;;;12.30;5.72;;;;;;;3.77;100.00;100714.44;5064173;28;20032;-72
2023/11/27 00:31:27;;;;;;;17.40;5.60;;;;;;;3.77;100.00;100704.16;5064243;28;20037;-72
2023/11/27 00:33:53;;;;;;;15.23;5.70;;;;;;;3.77;100.00;100704.16;5062994;28;20033;-71
2023/11/27 00:36:18;;;;;;;13.38;5.80;;;;;;;3.87;100.00;100702.53;5067332;28;20453;-72
2023/11/27 00:38:44;;;;;;;22.98;6.13;;;;;;;3.88;100.00;100701.63;5063715;28;20055;-72
2023/11/27 00:41:14;;;;;;;15.45;5.80;;;;;;;3.94;100.00;100695.22;5058782;28;20044;-71
2023/11/27 00:43:41;;;;;;;16.75;6.25;;;;;;;3.75;100.00;100692.38;5061457;28;20081;-71
2023/11/27 00:46:07;;;;;;;20.67;6.25;;;;;;;3.72;100.00;100685.72;5061499;28;20052;-72
2023/11/27 00:48:33;;;;;;;15.10;6.88;;;;;;;3.73;100.00;100681.41;5068405;28;20715;-71
2023/11/27 00:50:59;;;;;;;16.48;6.55;;;;;;;3.68;100.00;100680.00;5050907;28;20033;-73
2023/11/27 00:53:24;;;;;;;16.95;6.25;;;;;;;3.72;100.00;100675.47;5063470;28;20056;-72
2023/11/27 00:55:50;;;;;;;14.30;6.78;;;;;;;3.67;100.00;100669.84;5059532;28;20083;-72
2023/11/27 00:58:15;;;;;;;17.85;6.97;;;;;;;3.63;100.00;100676.16;5049672;28;20040;-73
2023/11/27 01:00:42;;;;;;;20.20;7.32;;;;;;;3.71;100.00;100666.13;5057375;28;20032;-73
2023/11/27 01:03:07;;;;;;;19.65;7.40;;;;;;;3.68;100.00;100656.13;5046564;28;20029;-72
2023/11/27 01:05:32;;;;;;;20.75;7.60;;;;;;;3.70;100.00;100652.50;5060613;28;20047;-72
2023/11/27 01:07:59;;;;;;;16.70;8.18;;;;;;;3.68;100.00;100651.81;5061538;28;20025;-72
2023/11/27 01:10:24;;;;;;;19.98;7.07;;;;;;;3.66;100.00;100645.97;5058588;28;20044;-72
2023/11/27 01:12:50;;;;;;;17.73;7.38;;;;;;;3.56;100.00;100633.94;5046500;28;20039;-72
2023/11/27 01:15:16;;;;;;;20.58;8.18;;;;;;;3.57;100.00;100636.41;5054121;28;20045;-72
2023/11/27 01:17:42;;;;;;;21.17;8.40;;;;;;;3.47;100.00;100631.13;5043227;28;20379;-72
2023/11/27 01:20:09;;;;;;;26.17;8.57;;;;;;;3.59;100.00;100620.91;5058019;28;20037;-73
2023/11/27 01:22:38;;;;;;;22.15;8.00;;;;;;;3.42;100.00;100619.59;5063251;28;20632;-73
2023/11/27 01:25:04;;;;;;;27.30;8.68;;;;;;;3.53;100.00;100617.06;5064572;28;20033;-72
2023/11/27 01:27:34;;;;;;;20.27;7.95;;;;;;;3.45;100.00;100609.94;5063676;28;20044;-73
2023/11/27 01:30:01;;;;;;;21.02;8.75;;;;;;;3.68;100.00;100609.97;5062498;28;20029;-72
2023/11/27 01:32:27;;;;;;;21.75;9.30;;;;;;;3.56;100.00;100606.56;5062608;28;20066;-72
2023/11/27 01:34:52;;;;;;;24.30;8.43;;;;;;;3.58;100.00;100598.75;5065328;28;20097;-70
2023/11/27 01:37:18;;;;;;;22.50;7.90;;;;;;;3.51;100.00;100594.09;5063542;28;20049;-73
2023/11/27 01:39:44;;;;;;;17.38;8.70;;;;;;;3.44;100.00;100592.09;5064063;28;20032;-72
2023/11/27 01:42:10;;;;;;;20.90;8.65;;;;;;;3.38;100.00;100590.81;5049896;28;20020;-72
2023/11/27 01:44:37;;;;;;;20.95;9.07;;;;;;;3.43;100.00;100585.34;5066250;28;20037;-72
2023/11/27 01:47:03;;;;;;;19.52;8.38;;;;;;;3.41;100.00;100576.94;5061533;28;20119;-72
2023/11/27 01:49:30;;;;;;;23.67;10.73;;;;;;;3.38;100.00;100577.19;5067161;28;20028;-72
2023/11/27 01:51:57;;;;;;;17.63;8.52;;;;;;;3.42;100.00;100569.13;5060199;28;20045;-72
2023/11/27 01:54:22;;;;;;;24.45;9.27;;;;;;;3.43;100.00;100565.66;5047216;28;20035;-72
2023/11/27 01:56:49;;;;;;;26.48;9.77;;;;;;;3.49;100.00;100556.69;5060237;28;20032;-72
2023/11/27 01:59:16;;;;;;;16.00;8.23;;;;;;;3.49;100.00;100554.13;5058655;28;22427;-72
2023/11/27 02:01:42;;;;;;;16.60;8.55;;;;;;;3.41;100.00;100556.44;5060398;28;20024;-72
2023/11/27 02:04:08;;;;;;;27.40;10.52;;;;;;;3.45;100.00;100547.59;5062555;28;20037;-72
2023/11/27 02:06:33;;;;;;;20.70;8.40;;;;;;;3.41;100.00;100539.31;5058270;28;20393;-71
2023/11/27 02:08:59;;;;;;;21.02;8.57;;;;;;;3.53;100.00;100537.56;5065101;28;20046;-72
2023/11/27 02:11:28;;;;;;;22.10;8.52;;;;;;;3.48;100.00;100530.25;5064068;28;20241;-72
2023/11/27 02:13:53;;;;;;;21.52;9.23;;;;;;;3.44;100.00;100533.94;5063892;28;20033;-72
2023/11/27 02:16:19;;;;;;;28.65;9.93;;;;;;;3.44;100.00;100525.44;5062214;28;20752;-73
2023/11/27 02:18:45;;;;;;;21.75;9.10;;;;;;;3.49;100.00;100513.91;5061646;28;20066;-72
2023/11/27 02:21:11;;;;;;;17.77;8.27;;;;;;;3.49;100.00;100519.03;5045141;28;20044;-72
2023/11/27 02:23:37;;;;;;;24.50;8.98;;;;;;;3.45;100.00;100517.63;5060120;28;20029;-72
2023/11/27 02:26:04;;;;;;;21.80;7.50;;;;;;;3.50;100.00;100509.59;5080260;28;20040;-72
2023/11/27 02:28:29;;;;;;;21.02;8.55;;;;;;;3.53;100.00;100517.06;5050701;28;20370;-71
2023/11/27 02:30:55;;;;;;;18.83;7.40;;;;;;;3.57;100.00;100503.06;5061941;28;20044;-71
2023/11/27 02:33:21;;;;;;;22.02;7.50;;;;;;;3.53;100.00;100506.81;5058198;28;20514;-71
2023/11/27 02:35:48;;;;;;;20.50;7.50;;;;;;;3.54;100.00;100499.91;5060227;28;20048;-71
2023/11/27 02:38:13;;;;;;;13.27;7.13;;;;;;;3.58;100.00;100497.00;5062688;28;20589;-71
2023/11/27 02:40:39;;;;;;;19.23;6.78;;;;;;;3.56;100.00;100491.19;5062255;28;20052;-71
2023/11/27 02:43:05;;;;;;;24.90;8.80;;;;;;;3.54;100.00;100492.22;5048826;28;20037;-71
2023/11/27 02:45:31;;;;;;;19.65;7.05;;;;;;;3.47;100.00;100485.00;5063153;28;20040;-71
2023/11/27 02:47:57;;;;;;;19.83;6.30;;;;;;;3.46;100.00;100480.81;5042860;28;20487;-71
2023/11/27 02:50:23;;;;;;;20.15;8.30;;;;;;;3.45;100.00;100481.75;5064408;28;20406;-71
2023/11/27 02:52:49;;;;;;;18.88;7.50;;;;;;;3.39;100.00;100473.69;5060404;28;20029;-71
2023/11/27 02:55:16;;;;;;;17.40;7.28;;;;;;;3.41;100.00;100474.41;5060961;28;20051;-71
2023/11/27 02:57:42;;;;;;;18.05;6.55;;;;;;;3.42;100.00;100471.72;5060428;28;20020;-71
2023/11/27 03:00:08;;;;;;;17.65;6.55;;;;;;;3.39;100.00;100463.44;5059271;28;20098;-71
2023/11/27 03:02:34;;;;;;;16.67;6.15;;;;;;;3.42;100.00;100470.91;5061701;28;20123;-71
2023/11/27 03:04:59;;;;;;;15.77;6.13;;;;;;;3.37;100.00;100458.47;5059356;28;20124;-71
2023/11/27 03:07:25;;;;;;;13.70;6.03;;;;;;;3.46;100.00;100447.47;5077641;28;20032;-71
2023/11/27 03:09:50;;;;;;;22.60;7.05;;;;;;;3.49;100.00;100451.56;5045304;28;20405;-71
2023/11/27 03:12:16;;;;;;;10.18;5.57;;;;;;;3.41;100.00;100454.72;5060750;28;20060;-71
2023/11/27 03:14:41;;;;;;;17.55;6.03;;;;;;;3.42;100.00;100435.84;5059576;28;20086;-71
2023/11/27 03:17:07;;;;;;;14.75;6.70;;;;;;;3.42;100.00;100442.72;5061904;28;20024;-71
2023/11/27 03:19:37;;;;;;;20.88;7.05;;;;;;;3.50;100.00;100428.38;5057147;28;20033;-71
2023/11/27 03:22:02;;;;;;;10.43;5.38;;;;;;;3.44;100.00;100428.84;5059263;28;20052;-71
2023/11/27 03:24:28;;;;;;;15.55;6.68;;;;;;;3.38;100.00;100425.94;5059861;28;20124;-71
2023/11/27 03:26:53;;;;;;;20.80;6.18;;;;;;;3.37;100.00;100421.75;5062333;28;20029;-71
2023/11/27 03:29:19;;;;;;;16.23;5.95;;;;;;;3.40;100.00;100411.25;5056162;28;20549;-71
2023/11/27 03:31:44;;;;;;;24.63;6.18;;;;;;;3.37;100.00;100404.63;5059154;28;20032;-71
2023/11/27 03:34:10;;;;;;;15.85;5.13;;;;;;;3.28;100.00;100403.59;5044580;28;20041;-71
2023/11/27 03:36:35;;;;;;;14.68;5.35;;;;;;;3.36;100.00;100394.50;5064394;28;20036;-71
2023/11/27 03:39:01;;;;;;;18.40;5.82;;;;;;;3.34;100.00;100398.94;5057667;28;20040;-72
2023/11/27 03:41:26;;;;;;;13.00;5.88;;;;;;;3.34;100.00;100389.47;5062786;28;20048;-71
2023/11/27 03:43:51;;;;;;;19.00;6.10;;;;;;;3.33;100.00;100397.28;5079209;28;20495;-71
2023/11/27 03:46:17;;;;;;;13.65;5.00;;;;;;;3.19;100.00;100380.44;5059626;28;20137;-72
2023/11/27 03:48:42;;;;;;;17.70;5.78;;;;;;;3.21;100.00;100370.88;5065021;28;20037;-72
2023/11/27 03:51:09;;;;;;;19.83;5.13;;;;;;;3.21;100.00;100368.31;5059149;28;20040;-72
2023/11/27 03:53:35;;;;;;;15.63;5.32;;;;;;;3.12;100.00;100362.13;5059495;28;20032;-72
2023/11/27 03:56:00;;;;;;;17.00;5.38;;;;;;;3.13;100.00;100358.66;5044464;28;20087;-72
2023/11/27 03:58:26;;;;;;;18.80;6.75;;;;;;;3.05;100.00;100356.69;5068826;28;20483;-72
2023/11/27 04:00:52;;;;;;;14.68;6.32;;;;;;;3.04;100.00;100346.53;5059346;28;20052;-72
2023/11/27 04:03:19;;;;;;;14.95;5.40;;;;;;;3.03;100.00;100350.03;5063371;28;20032;-72
2023/11/27 04:05:44;;;;;;;16.95;5.18;;;;;;;2.98;100.00;100345.28;5061801;28;20388;-72
2023/11/27 04:08:10;;;;;;;11.35;4.82;;;;;;;3.06;100.00;100334.44;5062582;28;20035;-73
2023/11/27 04:10:35;;;;;;;16.75;5.43;;;;;;;3.06;100.00;100332.69;5069326;28;20039;-73
2023/11/27 04:13:02;;;;;;;17.50;6.75;;;;;;;3.09;100.00;100329.09;5082766;28;20024;-73
2023/11/27 04:15:29;;;;;;;17.83;6.32;;;;;;;3.14;100.00;100331.28;5080943;28;20595;-73
2023/11/27 04:17:55;;;;;;;12.93;5.97;;;;;;;3.11;100.00;100325.47;5080974;28;20048;-73
2023/11/27 04:20:20;;;;;;;20.08;5.50;;;;;;;3.02;100.00;100315.91;5070264;28;20047;-73
2023/11/27 04:22:46;;;;;;;16.25;5.60;;;;;;;3.04;100.00;100315.81;5079833;28;20031;-73
2023/11/27 04:25:12;;;;;;;14.90;5.57;;;;;;;2.95;100.00;100309.63;5065820;28;20043;-73
2023/11/27 04:27:38;;;;;;;13.25;5.40;;;;;;;2.97;100.00;100300.09;5081098;28;20028;-73
2023/11/27 04:30:05;;;;;;;11.48;5.20;;;;;;;2.90;100.00;100289.50;5067128;28;20037;-73
2023/11/27 04:32:31;;;;;;;13.43;6.68;;;;;;;2.97;100.00;100282.16;5065860;28;20032;-73
2023/11/27 04:34:57;;;;;;;16.27;5.47;;;;;;;2.91;100.00;100278.31;5064859;28;20044;-73
2023/11/27 04:37:22;;;;;;;12.00;5.75;;;;;;;2.91;100.00;100283.44;5067502;28;20077;-73
2023/11/27 04:39:49;;;;;;;14.57;4.82;;;;;;;2.95;100.00;100270.41;5063115;28;20070;-73
2023/11/27 04:42:15;;;;;;;17.50;6.60;;;;;;;2.98;100.00;100267.63;5067734;28;20043;-73
2023/11/27 04:44:40;;;;;;;11.65;4.97;;;;;;;3.00;100.00;100265.75;5082401;28;20020;-73
2023/11/27 04:47:06;;;;;;;12.65;5.43;;;;;;;2.85;100.00;100257.50;5068509;28;20032;-74
2023/11/27 04:49:32;;;;;;;13.98;5.40;;;;;;;2.91;100.00;100257.81;5080888;28;20078;-73
2023/11/27 04:51:57;;;;;;;11.77;4.68;;;;;;;2.96;100.00;100241.28;5081361;28;20039;-73
2023/11/27 04:54:23;;;;;;;14.57;5.63;;;;;;;2.95;100.00;100230.22;5079272;28;20036;-74
2023/11/27 04:56:49;;;;;;;15.68;6.13;;;;;;;2.85;100.00;100225.03;5087042;28;20036;-73
2023/11/27 04:59:14;;;;;;;15.18;5.18;;;;;;;2.86;100.00;100218.97;5086700;28;20114;-73
2023/11/27 05:01:40;;;;;;;10.98;5.55;;;;;;;2.86;100.00;100215.59;5086947;28;20048;-73
2023/11/27 05:04:05;;;;;;;15.02;5.82;;;;;;;2.84;100.00;100212.34;5065663;28;20039;-74
2023/11/27 05:06:31;;;;;;;11.90;5.53;;;;;;;2.88;100.00;100206.03;5083548;28;20029;-74
2023/11/27 05:08:56;;;;;;;10.95;5.07;;;;;;;2.86;100.00;100195.94;5084613;28;20082;-74
2023/11/27 05:11:22;;;;;;;22.15;5.07;;;;;;;2.90;100.00;100184.50;5085215;28;20486;-72
2023/11/27 05:13:48;;;;;;;12.38;5.55;;;;;;;2.84;100.00;100184.16;5085098;28;20077;-73
2023/11/27 05:16:14;;;;;;;13.85;6.10;;;;;;;2.78;100.00;100174.41;5083916;28;20040;-73
2023/11/27 05:18:41;;;;;;;20.90;5.70;;;;;;;2.81;100.00;100167.31;5081026;28;20046;-73
2023/11/27 05:21:16;;;;;;;18.55;6.40;;;;;;;2.76;100.00;100168.59;5079698;28;20032;-73
2023/11/27 05:23:42;;;;;;;23.05;6.55;;;;;;;2.75;100.00;100155.00;5070641;28;20080;-73
2023/11/27 05:26:09;;;;;;;14.82;6.60;;;;;;;2.77;100.00;100153.13;5083924;28;20031;-73
2023/11/27 05:28:35;;;;;;;20.65;6.85;;;;;;;2.80;100.00;100146.94;5064759;28;20398;-73
2023/11/27 05:31:00;;;;;;;16.05;6.13;;;;;;;2.77;100.00;100136.91;5066921;28;20487;-73
2023/11/27 05:33:26;;;;;;;14.35;5.95;;;;;;;2.74;100.00;100138.00;5087576;28;20071;-74
2023/11/27 05:35:51;;;;;;;15.95;5.72;;;;;;;2.81;100.00;100128.09;5082527;28;20105;-73
2023/11/27 05:38:18;;;;;;;18.27;5.75;;;;;;;2.78;100.00;100123.19;5065131;28;20119;-74
2023/11/27 05:40:44;;;;;;;14.30;5.82;;;;;;;2.83;100.00;100114.22;5087972;28;20134;-73
2023/11/27 05:43:11;;;;;;;17.98;5.68;;;;;;;2.81;100.00;100110.97;5087586;28;20058;-74
2023/11/27 05:45:37;;;;;;;15.52;5.05;;;;;;;2.82;100.00;100091.28;5080813;28;20040;-72
2023/11/27 05:48:05;;;;;;;13.82;5.05;;;;;;;2.88;100.00;100086.50;5082842;28;20085;-74
2023/11/27 05:50:31;;;;;;;13.05;5.20;;;;;;;2.91;100.00;100073.41;5070974;28;20040;-73
2023/11/27 05:52:57;;;;;;;12.52;4.50;;;;;;;2.93;100.00;100055.38;5084828;28;20036;-73
2023/11/27 05:55:23;;;;;;;13.23;4.43;;;;;;;2.89;100.00;100048.88;5081949;28;20052;-74
2023/11/27 05:57:48;;;;;;;12.25;4.88;;;;;;;2.92;100.00;100048.66;5069019;28;20074;-74
2023/11/27 06:00:14;;;;;;;13.90;5.35;;;;;;;2.89;100.00;100039.44;5082739;28;20398;-73
2023/11/27 06:02:39;;;;;;;16.60;5.32;;;;;;;2.93;100.00;100038.25;5086629;28;20260;-74
2023/11/27 06:05:05;;;;;;;12.02;5.00;;;;;;;2.93;100.00;100024.66;5082933;28;20036;-74
2023/11/27 06:07:31;;;;;;;13.95;5.13;;;;;;;2.85;100.00;100020.16;5083360;28;20687;-75
2023/11/27 06:09:56;;;;;;;13.80;5.22;;;;;;;2.95;100.00;100001.47;5083657;28;20043;-75
2023/11/27 06:12:25;;;;;;;14.90;5.10;;;;;;;2.85;100.00;100003.97;5086131;28;20035;-74
2023/11/27 06:14:51;;;;;;;16.92;6.03;;;;;;;2.81;100.00;99995.72;5084338;28;20020;-75
2023/11/27 06:17:17;;;;;;;15.32;6.70;;;;;;;2.85;100.00;99986.84;5082475;28;20055;-74
2023/11/27 06:19:43;;;;;;;17.95;6.88;;;;;;;2.92;100.00;99980.31;5081175;28;20036;-74
2023/11/27 06:22:08;;;;;;;13.60;6.07;;;;;;;2.88;100.00;99973.81;5082617;28;20032;-75
2023/11/27 06:24:34;;;;;;;17.83;7.65;;;;;;;2.88;100.00;99966.13;5086700;28;20046;-74
2023/11/27 06:26:59;;;;;;;21.05;8.63;;;;;;;2.84;100.00;99974.16;5081818;28;20040;-75
2023/11/27 06:29:25;;;;;;;16.52;6.45;;;;;;;2.85;100.00;99980.94;5081989;28;20071;-74
2023/11/27 06:31:50;;;;;;;17.23;6.43;;;;;;;2.84;100.00;99974.97;5062413;28;20032;-75
2023/11/27 06:34:16;;;;;;;10.05;6.18;;;;;;;2.85;100.00;99966.38;5086733;28;20028;-75
2023/11/27 06:36:42;;;;;;;17.55;6.60;;;;;;;2.84;100.00;99962.19;5083808;28;20028;-75
2023/11/27 06:39:08;;;;;;;12.55;6.03;;;;;;;2.84;100.00;99954.50;5084324;28;20051;-74
2023/11/27 06:41:34;;;;;;;21.85;6.70;;;;;;;2.82;100.00;99953.00;5084952;28;20036;-75
2023/11/27 06:44:00;;;;;;;11.18;5.68;;;;;;;2.83;100.00;99957.19;5061769;28;20032;-74
2023/11/27 06:46:27;;;;;;;11.35;5.45;;;;;;;2.76;100.00;99954.31;5076587;28;20410;-75
2023/11/27 06:48:53;;;;;;;27.35;14.02;;;;;;;2.84;100.00;99949.38;5086961;28;20036;-74
2023/11/27 06:51:19;;;;;;;38.20;16.63;;;;;;;2.84;100.00;99946.00;5091993;28;20039;-74
2023/11/27 06:53:45;;;;;;;108.68;53.42;;;;;;;2.80;100.00;99940.31;5079378;28;20031;-75
2023/11/27 06:56:11;;;;;;;36.75;19.45;;;;;;;2.86;100.00;99939.84;5080492;28;20044;-74
2023/11/27 06:58:36;;;;;;;29.38;13.52;;;;;;;2.85;100.00;99947.63;5080223;28;20044;-75
2023/11/27 07:01:04;;;;;;;10.88;5.88;;;;;;;2.80;100.00;99930.09;5083498;28;20027;-75
2023/11/27 07:03:30;;;;;;;17.73;7.38;;;;;;;2.81;100.00;99933.47;5086496;28;20040;-75
2023/11/27 07:05:55;;;;;;;11.68;5.70;;;;;;;2.88;100.00;99937.97;5080027;28;20074;-75
2023/11/27 07:08:20;;;;;;;11.52;5.22;;;;;;;2.84;100.00;99923.75;5081252;28;20032;-73
2023/11/27 07:10:47;;;;;;;8.55;5.28;;;;;;;2.84;100.00;99925.53;5056642;28;20066;-74
2023/11/27 07:13:12;;;;;;;11.73;5.78;;;;;;;2.81;100.00;99924.03;5070017;28;20042;-75
2023/11/27 07:15:38;;;;;;;8.15;4.18;;;;;;;2.83;100.00;99911.91;5084221;28;20041;-75
2023/11/27 07:18:04;;;;;;;10.95;4.35;;;;;;;2.89;100.00;99905.47;5066218;28;20042;-75
2023/11/27 07:20:29;;;;;;;13.32;4.30;;;;;;;2.90;100.00;99904.50;5064422;28;20048;-74
2023/11/27 07:22:55;;;;;;;22.27;9.60;;;;;;;2.92;100.00;99898.34;5082909;28;20024;-75
2023/11/27 07:25:20;;;;;;;14.50;7.40;;;;;;;2.92;100.00;99893.22;5084115;28;20039;-75
2023/11/27 07:27:49;;;;;;;19.77;11.32;;;;;;;2.85;100.00;99888.75;5087559;28;20055;-75
2023/11/27 07:30:16;;;;;;;15.50;8.90;;;;;;;2.86;100.00;99883.50;5090362;28;20039;-75
2023/11/27 07:32:42;;;;;;;15.05;6.97;;;;;;;2.81;100.00;99870.25;5083218;28;20031;-75
2023/11/27 07:35:10;;;;;;;10.80;4.78;;;;;;;2.78;100.00;99867.94;5080003;28;20123;-76
2023/11/27 07:37:37;;;;;;;10.88;5.47;;;;;;;2.78;100.00;99857.72;5081974;28;20027;-75
2023/11/27 07:40:05;;;;;;;10.93;4.47;;;;;;;2.73;100.00;99842.75;5084569;28;20502;-75
2023/11/27 07:42:30;;;;;;;11.23;7.72;;;;;;;2.69;100.00;99838.81;5086706;28;20028;-75
2023/11/27 07:44:56;;;;;;;7.78;4.68;;;;;;;2.73;100.00;99835.06;5081473;28;20032;-75
2023/11/27 07:47:22;;;;;;;13.00;5.82;;;;;;;2.78;100.00;99824.41;5082006;28;20522;-75
2023/11/27 07:49:48;;;;;;;7.47;3.80;;;;;;;2.74;100.00;99823.06;5082895;28;20062;-74
2023/11/27 07:52:13;;;;;;;10.85;4.28;;;;;;;2.71;100.00;99825.88;5081247;28;20502;-75
2023/11/27 07:54:41;;;;;;;9.82;3.75;;;;;;;2.70;100.00;99826.81;5078727;28;20035;-76
2023/11/27 07:57:07;;;;;;;12.50;4.85;;;;;;;2.65;100.00;99816.94;5082767;28;20028;-75
2023/11/27 07:59:33;;;;;;;11.50;4.05;;;;;;;2.66;100.00;99820.34;5081202;28;20072;-76
2023/11/27 08:02:00;;;;;;;5.70;3.85;;;;;;;2.65;100.00;99804.16;5084119;28;20043;-74
2023/11/27 08:04:26;;;;;;;6.20;3.30;;;;;;;2.70;100.00;99801.22;5084299;28;20055;-74
2023/11/27 08:06:51;;;;;;;7.38;4.20;;;;;;;2.73;100.00;99806.06;5065675;28;20471;-76
2023/11/27 08:09:17;;;;;;;9.20;3.42;;;;;;;2.73;100.00;99793.25;5063795;28;20060;-75
2023/11/27 08:11:43;;;;;;;15.32;7.53;;;;;;;2.68;100.00;99801.34;5067099;28;20115;-75
2023/11/27 08:14:10;;;;;;;95.05;35.75;;;;;;;2.72;100.00;99789.09;5083622;28;20068;-76
2023/11/27 08:16:36;;;;;;;44.08;24.35;;;;;;;2.77;100.00;99783.56;5062470;28;20452;-75
2023/11/27 08:19:01;;;;;;;14.52;7.95;;;;;;;2.71;100.00;99777.22;5064165;28;20033;-75
2023/11/27 08:21:27;;;;;;;9.35;5.85;;;;;;;2.71;100.00;99778.06;5076651;28;20040;-75
2023/11/27 08:23:52;;;;;;;11.02;4.93;;;;;;;2.72;100.00;99766.88;5085614;28;20028;-75
2023/11/27 08:26:19;;;;;;;7.72;4.07;;;;;;;2.67;100.00;99768.19;5085818;28;20114;-75
2023/11/27 08:28:45;;;;;;;9.38;4.65;;;;;;;2.76;100.00;99766.63;5078104;28;20058;-76
2023/11/27 08:31:10;;;;;;;13.40;4.53;;;;;;;2.78;100.00;99764.72;5084687;28;20024;-75
2023/11/27 08:33:36;;;;;;;6.45;3.60;;;;;;;2.69;100.00;99766.31;5084903;28;20490;-76
2023/11/27 08:36:03;;;;;;;8.35;3.83;;;;;;;2.69;100.00;99763.75;5074276;28;20043;-76
2023/11/27 08:38:30;;;;;;;10.77;5.30;;;;;;;2.82;100.00;99766.09;5089565;28;20509;-75
2023/11/27 08:40:56;;;;;;;8.85;4.95;;;;;;;2.80;100.00;99765.41;5082863;28;20044;-75
2023/11/27 08:43:22;;;;;;;11.98;6.00;;;;;;;2.82;100.00;99759.19;5088113;28;20103;-75
2023/11/27 08:45:48;;;;;;;12.00;4.32;;;;;;;2.82;100.00;99758.41;5085665;28;20035;-75
2023/11/27 08:48:15;;;;;;;8.32;3.70;;;;;;;2.79;100.00;99751.81;5088118;28;20039;-75
2023/11/27 08:50:41;;;;;;;11.27;4.00;;;;;;;2.83;100.00;99753.16;5069737;28;20081;-75
2023/11/27 08:53:08;;;;;;;11.18;6.80;;;;;;;2.86;100.00;99750.34;5086548;28;20522;-75
2023/11/27 08:55:34;;;;;;;7.28;4.07;;;;;;;2.88;100.00;99739.94;5083448;28;20062;-75
2023/11/27 08:58:03;;;;;;;8.80;4.40;;;;;;;2.84;100.00;99741.16;5082081;28;20039;-76
2023/11/27 09:00:30;;;;;;;9.88;4.45;;;;;;;2.93;100.00;99741.16;5082672;28;20036;-75
2023/11/27 09:02:56;;;;;;;5.75;3.90;;;;;;;2.88;100.00;99738.22;5086057;28;20102;-76
2023/11/27 09:05:24;;;;;;;6.28;4.00;;;;;;;2.89;100.00;99732.13;5088761;28;20514;-75
2023/11/27 09:07:57;;;;;;;6.82;3.67;;;;;;;2.96;100.00;99729.88;5069881;28;20159;-75
2023/11/27 09:10:23;;;;;;;10.98;3.60;;;;;;;2.92;100.00;99724.19;5087323;28;20043;-75
2023/11/27 09:12:49;;;;;;;5.82;2.72;;;;;;;2.92;100.00;99715.72;5089700;28;20040;-74
2023/11/27 09:15:15;;;;;;;5.88;2.97;;;;;;;2.88;100.00;99714.34;5085317;28;20050;-75
2023/11/27 09:17:41;;;;;;;3.40;2.70;;;;;;;2.98;100.00;99704.94;5089202;28;20025;-75
2023/11/27 09:20:10;;;;;;;6.50;2.85;;;;;;;2.92;100.00;99701.16;5085269;28;20096;-75
2023/11/27 09:22:39;;;;;;;4.32;2.70;;;;;;;2.96;100.00;99701.69;5085079;28;20043;-75
2023/11/27 09:25:08;;;;;;;3.42;2.63;;;;;;;2.99;100.00;99701.41;5069860;28;20035;-74
2023/11/27 09:27:37;;;;;;;6.00;2.75;;;;;;;3.02;100.00;99695.22;5070498;28;20063;-75
2023/11/27 09:30:07;;;;;;;6.85;2.60;;;;;;;2.97;100.00;99687.94;5062751;28;20042;-75
2023/11/27 09:32:34;;;;;;;4.95;2.88;;;;;;;3.01;100.00;99688.47;5084564;28;20119;-75
2023/11/27 09:35:01;;;;;;;2.53;1.73;;;;;;;2.99;100.00;99695.47;5081556;28;20611;-76
2023/11/27 09:37:27;;;;;;;4.97;3.05;;;;;;;2.99;100.00;99682.69;5086500;28;20036;-75
2023/11/27 09:39:53;;;;;;;5.88;3.03;;;;;;;3.00;100.00;99680.00;5065659;28;20051;-75
2023/11/27 09:42:19;;;;;;;4.95;2.28;;;;;;;3.06;100.00;99674.31;5081887;28;20548;-76
2023/11/27 09:44:45;;;;;;;4.32;2.40;;;;;;;2.96;100.00;99668.41;5086298;28;20107;-75
2023/11/27 09:47:12;;;;;;;4.03;2.03;;;;;;;3.06;100.00;99663.28;5084478;28;20026;-75
2023/11/27 09:49:47;;;;;;;10.98;2.30;;;;;;;3.05;100.00;99659.09;5069008;28;20036;-76
2023/11/27 09:52:19;;;;;;;5.13;1.90;;;;;;;3.07;100.00;99652.06;5062300;28;20028;-75
2023/11/27 09:54:50;;;;;;;22.25;8.20;;;;;;;3.01;100.00;99648.28;5087153;28;20036;-76
2023/11/27 09:57:17;;;;;;;154.40;42.05;;;;;;;3.01;100.00;99639.81;5084501;28;20402;-76
2023/11/27 09:59:43;;;;;;;27.77;11.20;;;;;;;3.03;100.00;99636.19;5067338;28;20036;-76
2023/11/27 10:02:10;;;;;;;5.13;3.50;;;;;;;3.10;100.00;99628.75;5084351;28;20115;-76
2023/11/27 10:04:35;;;;;;;4.00;2.78;;;;;;;3.09;100.00;99624.59;5079966;28;20024;-75
2023/11/27 10:07:01;;;;;;;3.00;1.88;;;;;;;3.10;100.00;99616.75;5082781;28;20055;-76
2023/11/27 10:09:26;;;;;;;169.25;63.15;;;;;;;3.14;100.00;99613.91;5066980;28;20028;-75
2023/11/27 10:12:00;;;;;;;5.88;2.83;;;;;;;3.15;100.00;99602.75;5084147;28;20032;-75
2023/11/27 10:14:29;;;;;;;3.13;2.10;;;;;;;3.10;100.00;99596.25;5081337;28;20765;-75
2023/11/27 10:16:58;;;;;;;4.97;2.53;;;;;;;3.06;100.00;99600.03;5069372;28;20130;-75
2023/11/27 10:19:25;;;;;;;3.97;2.60;;;;;;;3.15;100.00;99600.97;5059799;28;20402;-75
2023/11/27 10:21:51;;;;;;;3.58;2.20;;;;;;;3.22;100.00;99588.41;5083749;28;20031;-75
2023/11/27 10:24:17;;;;;;;5.30;1.95;;;;;;;3.15;100.00;99577.13;5060373;28;20046;-75
2023/11/27 10:26:43;;;;;;;3.22;1.63;;;;;;;3.21;100.00;99582.50;5084632;28;20042;-75
2023/11/27 10:29:11;;;;;;;3.55;2.22;;;;;;;3.19;100.00;99570.78;5081689;28;20040;-75
2023/11/27 10:31:37;;;;;;;4.25;1.95;;;;;;;3.23;100.00;99561.88;5081895;28;20509;-75
2023/11/27 10:34:06;;;;;;;9.63;5.30;;;;;;;3.29;100.00;99562.09;5080625;28;20071;-75
2023/11/27 10:36:32;;;;;;;7.53;4.90;;;;;;;3.25;100.00;99542.84;5081440;28;20070;-76
2023/11/27 10:39:05;;;;;;;5.78;3.10;;;;;;;3.33;100.00;99536.22;5068800;28;20051;-76
2023/11/27 10:41:31;;;;;;;4.63;2.70;;;;;;;3.32;100.00;99535.41;5080533;28;20059;-75
2023/11/27 10:43:58;;;;;;;36.72;11.65;;;;;;;3.33;100.00;99524.19;5080538;28;20032;-76
2023/11/27 10:46:31;;;;;;;130.55;47.78;;;;;;;3.34;100.00;99520.69;5082164;28;20371;-76
2023/11/27 10:49:00;;;;;;;13.48;7.45;;;;;;;3.34;100.00;99525.03;5063658;28;20040;-75
2023/11/27 10:51:31;;;;;;;6.75;4.55;;;;;;;3.38;100.00;99526.34;5082393;28;20077;-76
2023/11/27 10:53:59;;;;;;;2.67;2.15;;;;;;;3.41;100.00;99516.63;5074186;28;20038;-76
2023/11/27 10:56:28;;;;;;;4.63;2.80;;;;;;;3.38;100.00;99506.66;5082394;28;20066;-76
2023/11/27 10:59:05;;;;;;;4.13;3.00;;;;;;;3.39;100.00;99504.88;5069160;28;20542;-75
2023/11/27 11:01:41;;;;;;;5.18;2.20;;;;;;;3.42;100.00;99497.72;5075050;28;20035;-76
2023/11/27 11:04:22;;;;;;;2.90;2.13;;;;;;;3.38;100.00;99490.47;5081952;28;20024;-75
2023/11/27 11:06:52;;;;;;;5.07;2.00;;;;;;;3.38;100.00;99483.59;5082930;28;20039;-75
2023/11/27 11:09:22;;;;;;;4.18;2.45;;;;;;;3.45;100.00;99476.16;5084117;28;20146;-75
2023/11/27 11:11:49;;;;;;;3.30;1.33;;;;;;;3.44;100.00;99467.63;5087267;28;20043;-75
2023/11/27 11:14:19;;;;;;;2.40;1.25;;;;;;;3.42;100.00;99461.03;5068587;28;20122;-75
2023/11/27 11:17:16;;;;;;;2.03;1.48;;;;;;;3.48;100.00;99455.34;5065784;28;20054;-75
2023/11/27 11:20:01;;;;;;;1.48;0.80;;;;;;;3.40;100.00;99456.06;5080438;28;20060;-75